Aviation Digital Data Service (ADDS)

Output produced by METARs form (0559 UTC 19 March 2019)
found at http://www.aviationweather.gov/metar/data/
 
Forecast for: AMD
Text: TAF AMD BGGH 182230Z 1822/1901 33018KT 8000 -SHSN DRSN SCT010 BKN025
Forecast period: 2200 UTC 18 March 2019 to 0100 UTC 19 March 2019
Forecast type: FROM: standard forecast or significant change
Winds: from the NNW (330 degrees) at 21 MPH (18 knots; 9.3 m/s)
Visibility: 5 miles (8 km)
Ceiling: 2500 feet AGL
Clouds: scattered clouds at 1000 feet AGL
broken clouds at 2500 feet AGL
Weather: -SHSN DRSN  (light snow showers, low drifting snow)
Text: TEMPO 1822/1901 35020G30KT 1000 SHSN BLSN BKN007
Forecast period: 2200 UTC 18 March 2019 to 0100 UTC 19 March 2019
Forecast type: TEMPORARY: The following changes expected for less than half the time period
Winds: from the N (350 degrees) at 23 MPH (20 knots; 10.3 m/s)
gusting to 34 MPH (30 knots; 15.4 m/s)
Visibility: 0.62 miles (1.00 km)
Ceiling: 700 feet AGL
Clouds: broken clouds at 700 feet AGL
Weather: SHSN BLSN  (snow showers, blowing snow)